Time;durP1;ratioP1;P1;durP2;ratioP2;P2;SDS_P1;SDS_P2;PMS_P1;PMS_P2;Temp;Humidity;BMP_temperature;BMP_pressure;BME280_temperature;BME280_humidity;BME280_pressure;Samples;Min_cycle;Max_cycle;Signal;HPM_P1;HPM_P2
2021/03/23 00:00:54;;;;;;;5.90;3.63;;;153.70;1510.40;;;;;;5093736;28;20028;-80
2021/03/23 00:03:27;;;;;;;4.32;2.85;;;153.70;1510.40;;;;;;5092450;28;20509;-80
2021/03/23 00:05:53;;;;;;;6.32;3.85;;;153.60;1510.40;;;;;;5092271;28;20172;-80
2021/03/23 00:08:30;;;;;;;7.97;4.38;;;153.60;1510.40;;;;;;5093679;28;20028;-80
2021/03/23 00:10:58;;;;;;;8.32;4.15;;;153.60;1510.40;;;;;;5091559;28;20043;-80
2021/03/23 00:13:23;;;;;;;9.73;5.35;;;153.60;1484.80;;;;;;5093598;28;20015;-80
2021/03/23 00:15:50;;;;;;;5.97;3.85;;;128.90;1484.80;;;;;;5093565;28;20818;-80
2021/03/23 00:18:16;;;;;;;4.82;2.67;;;128.90;1484.80;;;;;;5092220;28;20024;-81
2021/03/23 00:20:42;;;;;;;3.05;2.75;;;128.90;1484.80;;;;;;5092178;28;20049;-81
2021/03/23 00:23:09;;;;;;;4.55;2.85;;;128.90;1484.80;;;;;;5092488;28;20498;-81
2021/03/23 00:25:35;;;;;;;6.47;3.67;;;128.90;1484.80;;;;;;5092211;28;20036;-81
2021/03/23 00:28:01;;;;;;;2.75;2.05;;;128.90;1484.80;;;;;;5091477;28;20075;-80
2021/03/23 00:30:28;;;;;;;5.43;2.85;;;128.90;1484.80;;;;;;5092075;28;20028;-81
2021/03/23 00:32:53;;;;;;;8.73;4.05;;;128.90;1484.80;;;;;;5092495;28;20016;-81
2021/03/23 00:35:20;;;;;;;3.17;2.50;;;128.80;1510.40;;;;;;5093668;28;20099;-81
2021/03/23 00:37:53;;;;;;;5.65;3.22;;;128.80;1510.40;;;;;;5092413;28;20039;-81
2021/03/23 00:40:25;;;;;;;4.40;2.97;;;128.80;1484.80;;;;;;5093570;28;20072;-81
2021/03/23 00:42:51;;;;;;;9.10;4.32;;;128.80;1484.80;;;;;;5092357;28;20123;-81
2021/03/23 00:45:18;;;;;;;11.48;4.53;;;128.80;1484.80;;;;;;5093477;28;20042;-81
2021/03/23 00:47:44;;;;;;;6.15;3.83;;;128.80;1484.80;;;;;;5093580;28;20028;-80
2021/03/23 00:50:10;;;;;;;5.63;3.50;;;128.80;1484.80;;;;;;5092127;28;20024;-79
2021/03/23 00:52:37;;;;;;;5.65;3.33;;;128.80;1484.80;;;;;;5092210;28;20404;-80
2021/03/23 00:55:04;;;;;;;6.50;3.10;;;128.80;1484.80;;;;;;5093220;28;20028;-80
2021/03/23 00:57:30;;;;;;;6.00;4.00;;;128.70;1484.80;;;;;;5091984;28;20058;-80
2021/03/23 00:59:56;;;;;;;5.40;3.80;;;128.70;1484.80;;;;;;5092156;28;20060;-80
2021/03/23 01:02:22;;;;;;;6.65;3.42;;;128.70;1484.80;;;;;;5090744;28;20042;-80
2021/03/23 01:04:47;;;;;;;7.85;3.72;;;128.70;1484.80;;;;;;5093014;28;20038;-79
2021/03/23 01:07:14;;;;;;;8.15;4.50;;;128.70;1484.80;;;;;;5092673;28;20044;-81
2021/03/23 01:09:40;;;;;;;11.38;4.50;;;128.70;1484.80;;;;;;5092525;28;20388;-81
2021/03/23 01:12:08;;;;;;;7.65;3.85;;;128.60;1484.80;;;;;;5091641;28;20116;-81
2021/03/23 01:14:35;;;;;;;4.55;3.15;;;128.60;1484.80;;;;;;5092720;28;20020;-80
2021/03/23 01:17:01;;;;;;;6.45;3.78;;;128.60;1484.80;;;;;;5090816;28;20028;-81
2021/03/23 01:19:27;;;;;;;5.35;3.40;;;128.60;1484.80;;;;;;5090780;28;20035;-81
2021/03/23 01:21:52;;;;;;;5.43;3.53;;;128.60;1484.80;;;;;;5090854;28;20024;-81
2021/03/23 01:24:18;;;;;;;7.03;4.00;;;128.60;1484.80;;;;;;5091924;28;20027;-81
2021/03/23 01:26:44;;;;;;;6.30;3.45;;;128.60;1484.80;;;;;;5090479;28;20073;-81
2021/03/23 01:29:10;;;;;;;3.35;2.30;;;128.60;1484.80;;;;;;5090586;28;20032;-80
2021/03/23 01:31:36;;;;;;;6.35;3.80;;;128.50;1484.80;;;;;;5091172;28;20035;-80
2021/03/23 01:34:03;;;;;;;9.02;4.30;;;128.50;1484.80;;;;;;5092920;28;20520;-80
2021/03/23 01:36:29;;;;;;;5.05;2.42;;;128.50;1484.80;;;;;;5091519;28;20028;-79
2021/03/23 01:38:55;;;;;;;6.50;3.22;;;128.50;1484.80;;;;;;5091762;28;20174;-81
2021/03/23 01:41:20;;;;;;;5.07;3.05;;;128.50;1510.40;;;;;;5091351;28;20032;-80
2021/03/23 01:43:46;;;;;;;6.22;3.22;;;128.50;1510.40;;;;;;5092038;28;20491;-80
2021/03/23 01:46:40;;;;;;;6.40;3.72;;;128.50;1510.40;;;;;;5090830;28;20118;-81
2021/03/23 01:49:20;;;;;;;4.57;2.80;;;128.50;1510.40;;;;;;5092348;28;20020;-80
2021/03/23 01:51:49;;;;;;;2.43;1.57;;;128.50;1510.40;;;;;;5090587;28;20032;-79
2021/03/23 01:54:27;;;;;;;6.45;2.92;;;128.50;1510.40;;;;;;5090927;28;20480;-79
2021/03/23 01:56:56;;;;;;;4.57;2.92;;;128.40;1510.40;;;;;;5093541;28;20031;-80
2021/03/23 01:59:23;;;;;;;2.85;1.80;;;128.40;1510.40;;;;;;5095445;28;20503;-80
2021/03/23 02:01:49;;;;;;;7.03;3.47;;;128.50;1510.40;;;;;;5096141;28;20029;-80
2021/03/23 02:04:15;;;;;;;2.53;2.28;;;128.50;1510.40;;;;;;5095973;28;20051;-81
2021/03/23 02:06:49;;;;;;;10.02;4.22;;;128.50;1510.40;;;;;;5093815;28;20052;-80
2021/03/23 02:09:19;;;;;;;4.28;2.22;;;128.50;1510.40;;;;;;5093624;28;20032;-80
2021/03/23 02:12:03;;;;;;;8.40;4.35;;;128.40;1510.40;;;;;;5093390;28;20081;-80
2021/03/23 02:14:33;;;;;;;4.57;3.33;;;128.40;1510.40;;;;;;5096028;28;20031;-80
2021/03/23 02:17:14;;;;;;;5.40;3.60;;;128.40;1510.40;;;;;;5095057;28;20016;-80
2021/03/23 02:19:40;;;;;;;5.13;2.08;;;128.40;1510.40;;;;;;5094920;28;20028;-81
2021/03/23 02:22:21;;;;;;;4.75;2.90;;;128.40;1510.40;;;;;;5094927;28;20031;-80
2021/03/23 02:24:48;;;;;;;5.13;2.40;;;128.40;1510.40;;;;;;5096118;28;20081;-80
2021/03/23 02:27:14;;;;;;;5.05;2.60;;;128.40;1510.40;;;;;;5096148;28;20020;-80
2021/03/23 02:29:40;;;;;;;5.50;2.80;;;128.40;1510.40;;;;;;5095937;28;20073;-80
2021/03/23 02:32:06;;;;;;;7.00;3.53;;;128.40;1510.40;;;;;;5094672;28;20069;-80
2021/03/23 02:34:32;;;;;;;3.63;2.00;;;128.40;1510.40;;;;;;5094200;28;20107;-80
2021/03/23 02:36:58;;;;;;;2.95;2.65;;;128.30;1510.40;;;;;;5094274;28;20497;-80
2021/03/23 02:39:26;;;;;;;5.70;2.80;;;128.30;1510.40;;;;;;5095821;28;20023;-80
2021/03/23 02:41:54;;;;;;;5.53;2.85;;;128.30;1510.40;;;;;;5095805;28;20024;-80
2021/03/23 02:44:20;;;;;;;3.95;2.33;;;128.30;1510.40;;;;;;5094128;28;20043;-80
2021/03/23 02:46:46;;;;;;;4.07;2.58;;;128.30;1510.40;;;;;;5096055;28;20016;-80
2021/03/23 02:49:12;;;;;;;6.15;3.08;;;128.30;1510.40;;;;;;5094357;28;20088;-80
2021/03/23 02:51:38;;;;;;;5.28;2.53;;;128.30;1510.40;;;;;;5094196;28;20050;-79
2021/03/23 02:54:04;;;;;;;5.90;2.78;;;128.30;1510.40;;;;;;5095558;28;20023;-80
2021/03/23 02:56:31;;;;;;;3.90;2.67;;;128.20;1510.40;;;;;;5094238;28;20081;-81
2021/03/23 02:58:57;;;;;;;3.88;2.08;;;128.20;1510.40;;;;;;5095402;28;20028;-81
2021/03/23 03:01:23;;;;;;;3.83;2.28;;;128.20;1510.40;;;;;;5094178;28;20024;-81
2021/03/23 03:03:49;;;;;;;4.68;2.53;;;128.20;1510.40;;;;;;5093807;28;20043;-81
2021/03/23 03:06:15;;;;;;;7.78;2.65;;;128.20;1510.40;;;;;;5095542;28;20130;-82
2021/03/23 03:08:41;;;;;;;6.03;2.97;;;128.20;1510.40;;;;;;5092934;28;20115;-80
2021/03/23 03:11:07;;;;;;;5.47;2.53;;;128.20;1510.40;;;;;;5093501;28;20039;-80
2021/03/23 03:13:34;;;;;;;6.70;3.55;;;128.10;1510.40;;;;;;5095197;28;20030;-80
2021/03/23 03:16:00;;;;;;;6.10;3.20;;;128.10;1510.40;;;;;;5093882;28;20107;-80
2021/03/23 03:18:27;;;;;;;8.45;3.08;;;128.10;1510.40;;;;;;5095271;28;20044;-80
2021/03/23 03:20:55;;;;;;;8.63;3.53;;;128.10;1510.40;;;;;;5095017;28;20024;-80
2021/03/23 03:23:21;;;;;;;3.53;1.80;;;128.10;1510.40;;;;;;5094977;28;20024;-80
2021/03/23 03:25:48;;;;;;;7.63;3.75;;;128.10;1510.40;;;;;;5093612;28;20028;-80
2021/03/23 03:28:15;;;;;;;9.88;3.80;;;128.10;1510.40;;;;;;5093649;28;20028;-81
2021/03/23 03:30:42;;;;;;;6.20;3.72;;;128.10;1510.40;;;;;;5094784;28;20149;-81
2021/03/23 03:33:10;;;;;;;2.47;1.98;;;128.00;1510.40;;;;;;5093502;28;20028;-81
2021/03/23 03:35:38;;;;;;;6.38;3.90;;;128.00;1510.40;;;;;;5093471;28;20020;-81
2021/03/23 03:38:05;;;;;;;10.20;3.97;;;128.00;1510.40;;;;;;5092773;28;20111;-82
2021/03/23 03:40:38;;;;;;;7.05;4.28;;;128.00;1510.40;;;;;;5092456;28;20028;-81
2021/03/23 03:43:04;;;;;;;8.75;4.57;;;128.00;1510.40;;;;;;5088936;28;20031;-81
2021/03/23 03:45:30;;;;;;;7.75;4.57;;;128.00;1510.40;;;;;;5092907;28;20029;-81
2021/03/23 03:47:57;;;;;;;8.10;3.83;;;128.00;1510.40;;;;;;5094486;28;20095;-81
2021/03/23 03:50:25;;;;;;;12.38;4.53;;;128.00;1510.40;;;;;;5094698;28;20915;-81
2021/03/23 03:52:51;;;;;;;9.15;4.53;;;128.00;1510.40;;;;;;5094425;28;20020;-81
2021/03/23 03:55:20;;;;;;;8.82;4.07;;;128.00;1510.40;;;;;;5094645;28;20107;-80
2021/03/23 03:57:46;;;;;;;11.10;3.60;;;103.30;1484.80;;;;;;5093116;28;20028;-80
2021/03/23 04:00:16;;;;;;;11.45;4.53;;;128.00;1510.40;;;;;;5093049;28;20087;-80
2021/03/23 04:02:41;;;;;;;4.03;2.22;;;103.30;1484.80;;;;;;5092512;28;20040;-80
2021/03/23 04:05:08;;;;;;;7.72;4.15;;;103.30;1484.80;;;;;;5092927;28;20031;-81
2021/03/23 04:07:33;;;;;;;8.00;4.53;;;103.30;1484.80;;;;;;5092243;28;20454;-81
2021/03/23 04:09:59;;;;;;;10.63;4.25;;;103.30;1484.80;;;;;;5092166;28;20028;-81
2021/03/23 04:12:25;;;;;;;3.65;2.50;;;103.30;1484.80;;;;;;5094127;28;20035;-82
2021/03/23 04:14:51;;;;;;;8.40;3.70;;;103.30;1484.80;;;;;;5092466;28;20067;-81
2021/03/23 04:17:17;;;;;;;11.93;5.65;;;103.30;1484.80;;;;;;5094022;28;20064;-81
2021/03/23 04:19:42;;;;;;;13.10;7.32;;;103.30;1484.80;;;;;;5093646;28;20027;-81
2021/03/23 04:22:09;;;;;;;9.05;5.28;;;103.30;1484.80;;;;;;5092643;28;20028;-81
2021/03/23 04:24:34;;;;;;;6.95;4.68;;;103.20;1484.80;;;;;;5092377;28;20031;-81
2021/03/23 04:27:00;;;;;;;11.43;6.20;;;103.30;1484.80;;;;;;5092633;28;20024;-82
2021/03/23 04:29:26;;;;;;;6.68;4.18;;;103.20;1484.80;;;;;;5093506;28;20380;-81
2021/03/23 04:31:51;;;;;;;8.55;4.93;;;103.20;1484.80;;;;;;5091674;28;20500;-82
2021/03/23 04:34:18;;;;;;;7.78;3.80;;;103.20;1484.80;;;;;;5090950;28;20034;-81
2021/03/23 04:36:43;;;;;;;11.50;5.38;;;103.20;1484.80;;;;;;5092418;28;20016;-82
2021/03/23 04:39:12;;;;;;;7.22;4.65;;;103.20;1484.80;;;;;;5092289;28;20368;-81
2021/03/23 04:41:39;;;;;;;11.32;5.25;;;103.20;1484.80;;;;;;5092340;28;20449;-82
2021/03/23 04:44:06;;;;;;;7.60;5.40;;;103.20;1484.80;;;;;;5092392;28;20028;-82
2021/03/23 04:46:33;;;;;;;7.88;5.13;;;103.20;1484.80;;;;;;5091903;28;20063;-81
2021/03/23 04:48:58;;;;;;;9.15;5.72;;;103.20;1510.40;;;;;;5092604;28;20039;-81
2021/03/23 04:51:28;;;;;;;9.90;5.28;;;103.20;1510.40;;;;;;5091953;28;20024;-81
2021/03/23 04:53:59;;;;;;;6.28;4.65;;;103.20;1510.40;;;;;;5093180;28;20070;-81
2021/03/23 04:56:31;;;;;;;5.60;2.97;;;103.20;1510.40;;;;;;5091449;28;20027;-81
2021/03/23 04:58:57;;;;;;;13.57;6.18;;;103.20;1510.40;;;;;;5092967;28;20024;-81
2021/03/23 05:01:24;;;;;;;13.27;6.47;;;103.10;1510.40;;;;;;5091764;28;20127;-81
2021/03/23 05:03:55;;;;;;;15.63;6.10;;;103.10;1510.40;;;;;;5093592;28;20016;-81
2021/03/23 05:06:22;;;;;;;4.97;3.33;;;103.10;1510.40;;;;;;5092007;28;20048;-82
2021/03/23 05:08:47;;;;;;;6.53;4.28;;;103.20;1510.40;;;;;;5093142;28;20039;-81
2021/03/23 05:11:18;;;;;;;9.10;4.07;;;103.10;1510.40;;;;;;5092015;28;20020;-82
2021/03/23 05:13:44;;;;;;;4.65;3.40;;;103.10;1510.40;;;;;;5091761;28;20388;-81
2021/03/23 05:16:10;;;;;;;7.30;4.93;;;103.10;1510.40;;;;;;5085675;28;20476;-81
2021/03/23 05:18:36;;;;;;;5.18;3.33;;;103.10;1510.40;;;;;;5073490;28;20021;-80
2021/03/23 05:21:03;;;;;;;9.13;4.32;;;103.10;1510.40;;;;;;5071769;28;20230;-80
2021/03/23 05:23:28;;;;;;;8.88;4.70;;;103.10;1510.40;;;;;;5071845;28;20751;-81
2021/03/23 05:25:54;;;;;;;9.18;5.18;;;103.10;1510.40;;;;;;5072678;28;20028;-81
2021/03/23 05:28:21;;;;;;;4.93;3.00;;;103.10;1510.40;;;;;;5072889;28;20025;-81
2021/03/23 05:30:47;;;;;;;9.27;5.15;;;103.20;1510.40;;;;;;5071808;28;20109;-84
2021/03/23 05:33:13;;;;;;;7.70;4.25;;;103.20;1510.40;;;;;;5074526;28;20119;-83
2021/03/23 05:35:40;;;;;;;11.93;6.03;;;103.20;1510.40;;;;;;5076919;28;20107;-82
2021/03/23 05:38:06;;;;;;;11.38;5.78;;;103.20;1510.40;;;;;;5093652;28;20131;-82
2021/03/23 05:40:43;;;;;;;12.02;6.22;;;103.20;1510.40;;;;;;5096334;28;20480;-84
2021/03/23 05:43:31;;;;;;;11.40;6.45;;;103.20;1510.40;;;;;;5095826;28;20032;-83
2021/03/23 05:46:17;;;;;;;12.38;5.97;;;103.20;1510.40;;;;;;5095923;28;20036;-84
2021/03/23 05:49:10;;;;;;;10.95;6.40;;;103.20;1510.40;;;;;;5095945;28;20035;-83
2021/03/23 05:51:43;;;;;;;17.17;7.50;;;103.20;1510.40;;;;;;5094794;28;20046;-83
2021/03/23 05:54:23;;;;;;;10.05;5.03;;;103.20;1510.40;;;;;;5095737;28;20082;-84
2021/03/23 05:56:53;;;;;;;21.35;9.07;;;103.20;1536.00;;;;;;5095203;28;20378;-84
2021/03/23 05:59:35;;;;;;;18.77;7.85;;;103.20;1536.00;;;;;;5082277;28;20029;-81
2021/03/23 06:02:13;;;;;;;12.95;6.38;;;103.20;1536.00;;;;;;5075088;28;20392;-82
2021/03/23 06:04:45;;;;;;;9.80;6.20;;;103.20;1536.00;;;;;;5074345;28;20123;-82
2021/03/23 06:07:14;;;;;;;12.25;6.50;;;103.20;1536.00;;;;;;5076732;28;20040;-81
2021/03/23 06:09:42;;;;;;;14.10;7.45;;;103.20;1536.00;;;;;;5074764;28;20030;-80
2021/03/23 06:12:23;;;;;;;6.30;3.47;;;103.20;1536.00;;;;;;5076155;28;20021;-82
2021/03/23 06:15:26;;;;;;;13.20;7.32;;;103.30;1536.00;;;;;;5076230;28;20024;-82
2021/03/23 06:18:00;;;;;;;12.48;6.35;;;103.30;1536.00;;;;;;5080851;28;20048;-82
2021/03/23 06:20:50;;;;;;;11.70;6.75;;;103.30;1536.00;;;;;;5092018;28;20107;-82
2021/03/23 06:23:44;;;;;;;13.90;7.47;;;103.30;1536.00;;;;;;5074730;28;20507;-86
2021/03/23 06:26:34;;;;;;;7.80;4.75;;;128.00;1561.60;;;;;;5074493;28;20024;-81
2021/03/23 06:29:16;;;;;;;14.25;7.80;;;128.00;1561.60;;;;;;5076145;28;20365;-80
2021/03/23 06:32:14;;;;;;;17.38;7.72;;;128.00;1561.60;;;;;;5075721;28;20060;-84
2021/03/23 06:34:40;;;;;;;16.45;7.40;;;128.00;1587.20;;;;;;5074336;28;20056;-82
2021/03/23 06:37:25;;;;;;;16.80;7.95;;;128.10;1587.20;;;;;;5075814;28;20413;-86
2021/03/23 06:39:51;;;;;;;15.20;7.13;;;128.10;1587.20;;;;;;5075735;28;20100;-79
2021/03/23 06:42:42;;;;;;;10.35;7.28;;;128.10;1587.20;;;;;;5075488;28;20146;-85
2021/03/23 06:45:17;;;;;;;13.68;8.95;;;128.20;1587.20;;;;;;5074515;28;20036;-81
2021/03/23 06:47:43;;;;;;;16.15;7.85;;;128.20;1587.20;;;;;;5074096;28;20072;-80
2021/03/23 06:50:32;;;;;;;16.10;8.23;;;128.30;1587.20;;;;;;5075276;28;20080;-85
2021/03/23 06:53:19;;;;;;;8.27;4.32;;;128.30;1587.20;;;;;;5074214;28;20033;-84
2021/03/23 06:55:46;;;;;;;10.90;5.90;;;128.40;1587.20;;;;;;5075752;28;20024;-79
2021/03/23 06:58:38;;;;;;;11.05;5.70;;;128.40;1587.20;;;;;;5075385;28;20017;-81
2021/03/23 07:01:20;;;;;;;22.08;10.95;;;128.50;1587.20;;;;;;5072515;28;20037;-85
2021/03/23 07:03:52;;;;;;;20.67;8.65;;;128.50;1587.20;;;;;;5074867;28;20086;-82
2021/03/23 07:06:21;;;;;;;21.52;9.07;;;128.50;1587.20;;;;;;5073966;28;20052;-81
2021/03/23 07:09:32;;;;;;;11.48;5.85;;;128.60;1587.20;;;;;;5073850;28;20377;-81
2021/03/23 07:12:05;;;;;;;10.10;6.50;;;128.70;1587.20;;;;;;5070444;28;20458;-79
2021/03/23 07:14:40;;;;;;;28.50;12.23;;;128.70;1587.20;;;;;;5075005;28;20033;-79
2021/03/23 07:17:15;;;;;;;15.70;8.77;;;128.80;1587.20;;;;;;5073901;28;20040;-79
2021/03/23 07:19:43;;;;;;;17.25;10.38;;;128.80;1587.20;;;;;;5074443;28;20044;-79
2021/03/23 07:22:16;;;;;;;10.48;5.97;;;128.90;1587.20;;;;;;5073539;28;20056;-79
2021/03/23 07:24:55;;;;;;;13.15;7.43;;;128.90;1587.20;;;;;;5075024;28;20028;-79
2021/03/23 07:27:23;;;;;;;12.02;6.25;;;153.60;1587.20;;;;;;5073430;28;20029;-82
2021/03/23 07:29:49;;;;;;;17.95;8.73;;;153.60;1587.20;;;;;;5073431;28;20434;-85
2021/03/23 07:32:53;;;;;;;13.68;7.18;;;153.70;1587.20;;;;;;5073068;28;20028;-83
2021/03/23 07:35:35;;;;;;;9.70;5.05;;;153.70;1587.20;;;;;;5012346;28;20462;-81
2021/03/23 07:38:26;;;;;;;13.82;7.22;;;153.80;1612.80;;;;;;5012742;28;20022;-79
2021/03/23 07:40:52;;;;;;;;;;;153.90;1612.80;;;;;;5052561;28;20032;-80
2021/03/23 07:43:37;;;;;;;12.90;7.70;;;153.90;1612.80;;;;;;5072831;28;19915;-79
2021/03/23 07:46:05;;;;;;;16.08;8.40;;;153.90;1612.80;;;;;;5074287;28;20027;-79
2021/03/23 07:49:12;;;;;;;12.18;6.25;;;154.00;1612.80;;;;;;5072670;28;20028;-78
2021/03/23 07:52:01;;;;;;;10.00;5.95;;;154.10;1612.80;;;;;;5074361;28;20033;-77
2021/03/23 07:54:26;;;;;;;9.57;5.15;;;154.10;1612.80;;;;;;5072209;28;20036;-76
2021/03/23 07:57:33;;;;;;;14.32;7.72;;;154.20;1612.80;;;;;;5072929;28;20079;-76
2021/03/23 08:00:18;;;;;;;12.77;6.72;;;154.30;1612.80;;;;;;5073973;28;20021;-79
2021/03/23 08:02:50;;;;;;;18.27;7.25;;;154.30;1612.80;;;;;;5072923;28;20031;-79
2021/03/23 08:05:28;;;;;;;15.55;6.93;;;154.40;1612.80;;;;;;5072883;28;20036;-78
2021/03/23 08:08:17;;;;;;;11.15;6.47;;;154.40;1612.80;;;;;;5072505;28;20097;-77
2021/03/23 08:11:01;;;;;;;19.70;10.00;;;154.50;1612.80;;;;;;5073848;28;20561;-78
2021/03/23 08:14:03;;;;;;;11.48;6.45;;;179.20;1612.80;;;;;;5073868;28;20067;-77
2021/03/23 08:16:48;;;;;;;11.70;6.18;;;179.20;1612.80;;;;;;5072474;28;20031;-77
2021/03/23 08:19:24;;;;;;;10.88;5.70;;;179.30;1612.80;;;;;;5072614;28;20116;-78
2021/03/23 08:22:14;;;;;;;35.65;11.55;;;179.30;1612.80;;;;;;5073729;28;20035;-77
2021/03/23 08:25:04;;;;;;;60.58;13.57;;;179.40;1612.80;;;;;;5073594;28;20408;-77
2021/03/23 08:28:00;;;;;;;11.77;6.00;;;179.50;1612.80;;;;;;5072354;28;20027;-79
2021/03/23 08:30:27;;;;;;;19.98;6.82;;;179.50;1612.80;;;;;;5072242;28;20028;-76
2021/03/23 08:33:00;;;;;;;20.75;7.13;;;179.50;1612.80;;;;;;5072333;28;20104;-78
2021/03/23 08:36:04;;;;;;;28.48;9.65;;;179.60;1612.80;;;;;;5071744;28;20028;-80
2021/03/23 08:38:44;;;;;;;13.02;5.43;;;179.60;1587.20;;;;;;5072123;28;20384;-78
2021/03/23 08:41:12;;;;;;;16.47;6.63;;;179.70;1587.20;;;;;;5072272;28;20055;-78
2021/03/23 08:43:42;;;;;;;11.95;7.00;;;179.70;1587.20;;;;;;5072038;28;20415;-78
2021/03/23 08:46:22;;;;;;;10.45;5.07;;;179.80;1587.20;;;;;;5073362;28;20056;-79
2021/03/23 08:49:04;;;;;;;10.38;5.18;;;179.80;1587.20;;;;;;5071544;28;20036;-79
2021/03/23 08:51:33;;;;;;;7.57;4.45;;;179.80;1587.20;;;;;;5071912;28;20024;-79
2021/03/23 08:54:06;;;;;;;9.68;4.78;;;179.90;1587.20;;;;;;5071655;28;20025;-79
2021/03/23 08:56:48;;;;;;;7.85;4.95;;;179.90;1587.20;;;;;;5071919;28;20029;-79
2021/03/23 08:59:35;;;;;;;10.48;5.65;;;179.90;1587.20;;;;;;5072050;28;20025;-79
2021/03/23 09:02:07;;;;;;;10.05;4.85;;;180.00;1587.20;;;;;;5073281;28;20021;-77
2021/03/23 09:04:37;;;;;;;10.10;5.30;;;180.00;1587.20;;;;;;5071876;28;20037;-79
2021/03/23 09:07:21;;;;;;;8.25;4.90;;;180.00;1587.20;;;;;;5073143;28;20052;-79
2021/03/23 09:09:49;;;;;;;8.52;5.07;;;180.10;1587.20;;;;;;5082893;28;20373;-78
2021/03/23 09:12:42;;;;;;;11.20;4.57;;;180.10;1587.20;;;;;;5095869;28;20024;-78
2021/03/23 09:15:16;;;;;;;8.75;5.00;;;204.80;1587.20;;;;;;5097783;28;20056;-79
2021/03/23 09:18:12;;;;;;;8.50;4.82;;;204.90;1587.20;;;;;;5094921;28;20036;-78
2021/03/23 09:20:38;;;;;;;6.93;4.15;;;204.90;1587.20;;;;;;5095727;28;20066;-79
2021/03/23 09:23:24;;;;;;;5.30;3.10;;;204.90;1587.20;;;;;;5097244;28;20024;-78
2021/03/23 09:26:15;;;;;;;9.38;5.00;;;205.00;1587.20;;;;;;5096013;28;20031;-79
2021/03/23 09:28:46;;;;;;;5.97;4.13;;;205.00;1587.20;;;;;;5097257;28;20032;-79
2021/03/23 09:31:19;;;;;;;6.00;3.90;;;205.10;1561.60;;;;;;5097053;28;20472;-86
2021/03/23 09:33:51;;;;;;;10.18;3.72;;;205.10;1561.60;;;;;;5096899;28;20020;-83
2021/03/23 09:36:21;;;;;;;9.32;4.50;;;205.20;1561.60;;;;;;5095887;28;20420;-81
2021/03/23 09:38:48;;;;;;;7.50;3.40;;;205.20;1561.60;;;;;;5095561;28;20380;-82
2021/03/23 09:41:20;;;;;;;6.82;3.78;;;205.20;1561.60;;;;;;5095785;28;20024;-81
2021/03/23 09:43:48;;;;;;;7.20;3.75;;;205.30;1561.60;;;;;;5094994;28;20499;-80
2021/03/23 09:46:40;;;;;;;6.55;4.65;;;205.40;1561.60;;;;;;5089519;28;20408;-82
2021/03/23 09:49:27;;;;;;;8.98;4.60;;;205.40;1561.60;;;;;;5076659;28;20032;-82
2021/03/23 09:52:06;;;;;;;5.22;3.42;;;205.40;1561.60;;;;;;5075488;28;20078;-82
2021/03/23 09:54:32;;;;;;;6.45;4.25;;;205.50;1561.60;;;;;;5092093;28;20020;-82
2021/03/23 09:57:00;;;;;;;7.72;4.25;;;205.50;1561.60;;;;;;5075427;28;20029;-82
2021/03/23 09:59:31;;;;;;;7.45;4.65;;;205.60;1561.60;;;;;;5092091;28;20131;-82
2021/03/23 10:01:58;;;;;;;13.15;4.82;;;205.60;1561.60;;;;;;5091285;28;20135;-82
2021/03/23 10:04:45;;;;;;;11.02;6.40;;;205.70;1561.60;;;;;;5074753;28;20032;-83
2021/03/23 10:07:34;;;;;;;12.05;6.80;;;205.70;1561.60;;;;;;5091198;28;20139;-82
2021/03/23 10:10:27;;;;;;;9.82;4.40;;;205.70;1561.60;;;;;;5074587;28;20027;-82
2021/03/23 10:12:54;;;;;;;7.10;4.90;;;230.40;1561.60;;;;;;5091612;28;20016;-82
2021/03/23 10:15:36;;;;;;;6.18;3.97;;;230.40;1561.60;;;;;;5074940;28;20033;-82
2021/03/23 10:18:17;;;;;;;4.82;3.80;;;230.50;1536.00;;;;;;5075596;28;20027;-82
2021/03/23 10:20:45;;;;;;;7.32;3.80;;;230.50;1536.00;;;;;;5076139;28;20028;-82
2021/03/23 10:23:11;;;;;;;10.52;4.75;;;230.50;1536.00;;;;;;5091069;28;20404;-82
2021/03/23 10:25:37;;;;;;;8.40;4.05;;;230.60;1536.00;;;;;;5073917;28;20058;-82
2021/03/23 10:28:05;;;;;;;6.95;3.90;;;230.60;1536.00;;;;;;5090628;28;20028;-82
2021/03/23 10:30:35;;;;;;;10.27;4.75;;;230.60;1536.00;;;;;;5058228;28;20036;-82
2021/03/23 10:33:25;;;;;;;6.18;3.97;;;230.60;1536.00;;;;;;5091710;28;20028;-82
2021/03/23 10:35:55;;;;;;;11.20;4.75;;;230.70;1536.00;;;;;;5090945;28;20036;-82
2021/03/23 10:38:26;;;;;;;4.90;2.58;;;230.70;1536.00;;;;;;5091463;28;20046;-82
2021/03/23 10:40:54;;;;;;;10.80;5.43;;;230.80;1536.00;;;;;;5074593;28;20028;-82
2021/03/23 10:43:47;;;;;;;7.68;3.50;;;230.80;1536.00;;;;;;5090631;28;20036;-82
2021/03/23 10:46:32;;;;;;;7.45;2.95;;;230.90;1536.00;;;;;;5071041;28;20043;-82
2021/03/23 10:49:14;;;;;;;6.18;3.83;;;230.90;1510.40;;;;;;5074231;28;20055;-82
2021/03/23 10:51:46;;;;;;;3.65;2.20;;;230.90;1510.40;;;;;;5074173;28;20517;-82
2021/03/23 10:54:12;;;;;;;6.40;3.75;;;231.00;1510.40;;;;;;5075461;28;20465;-82
2021/03/23 10:56:59;;;;;;;8.05;4.22;;;231.00;1510.40;;;;;;5075418;28;20029;-82
2021/03/23 10:59:32;;;;;;;4.55;3.45;;;231.10;1510.40;;;;;;5075505;28;20488;-82
2021/03/23 11:02:13;;;;;;;8.75;4.20;;;231.10;1510.40;;;;;;5090897;28;20440;-82
2021/03/23 11:05:10;;;;;;;7.22;4.03;;;231.10;1510.40;;;;;;5075283;28;20028;-82
2021/03/23 11:07:58;;;;;;;16.33;6.22;;;231.20;1510.40;;;;;;5075087;28;20049;-82
2021/03/23 11:10:27;;;;;;;9.82;4.80;;;231.20;1510.40;;;;;;5074985;28;20055;-82
2021/03/23 11:12:53;;;;;;;8.00;5.07;;;231.30;1510.40;;;;;;5075192;28;20021;-82
2021/03/23 11:15:19;;;;;;;5.15;3.63;;;231.30;1484.80;;;;;;5090254;28;20024;-82
2021/03/23 11:17:48;;;;;;;6.55;3.60;;;256.00;1484.80;;;;;;5075103;28;20028;-82
2021/03/23 11:20:27;;;;;;;5.90;3.80;;;256.00;1510.40;;;;;;5090544;28;20024;-82
2021/03/23 11:22:55;;;;;;;8.68;4.90;;;256.00;1484.80;;;;;;5073678;28;20394;-82
2021/03/23 11:25:25;;;;;;;9.02;4.60;;;256.10;1484.80;;;;;;5073464;28;20505;-82
2021/03/23 11:27:52;;;;;;;9.60;4.70;;;256.10;1484.80;;;;;;5090468;28;20027;-82
2021/03/23 11:30:18;;;;;;;5.65;2.95;;;256.20;1484.80;;;;;;5072595;28;20020;-82
2021/03/23 11:32:44;;;;;;;5.18;2.92;;;256.20;1484.80;;;;;;5073450;28;20032;-82
2021/03/23 11:35:11;;;;;;;4.65;3.72;;;256.30;1484.80;;;;;;5074785;28;20017;-82
2021/03/23 11:37:37;;;;;;;7.10;4.50;;;256.40;1484.80;;;;;;5089291;28;20037;-82
2021/03/23 11:40:04;;;;;;;4.65;3.00;;;256.40;1484.80;;;;;;5074533;28;20025;-82
2021/03/23 11:42:37;;;;;;;4.57;3.13;;;256.40;1484.80;;;;;;5089070;28;20038;-82
2021/03/23 11:45:19;;;;;;;4.57;2.72;;;256.40;1459.20;;;;;;5088193;28;20090;-81
2021/03/23 11:47:54;;;;;;;6.03;3.85;;;256.50;1459.20;;;;;;5088825;28;20048;-82
2021/03/23 11:50:23;;;;;;;5.57;3.42;;;256.50;1459.20;;;;;;5089689;28;20117;-82
2021/03/23 11:52:52;;;;;;;4.90;3.63;;;256.60;1459.20;;;;;;5089952;28;20024;-82
2021/03/23 11:55:26;;;;;;;7.43;3.65;;;256.60;1459.20;;;;;;5089929;28;20115;-82
2021/03/23 11:57:52;;;;;;;5.90;3.35;;;256.60;1459.20;;;;;;5089911;28;20480;-82
2021/03/23 12:00:20;;;;;;;5.68;4.05;;;256.60;1459.20;;;;;;5089883;28;20039;-82
2021/03/23 12:02:47;;;;;;;9.00;4.80;;;256.70;1433.60;;;;;;5074093;28;20025;-82
2021/03/23 12:05:13;;;;;;;5.25;3.10;;;256.70;1433.60;;;;;;5088931;28;20063;-82
2021/03/23 12:08:01;;;;;;;2.60;2.03;;;256.70;1433.60;;;;;;5089038;28;20470;-81
2021/03/23 12:10:35;;;;;;;4.03;3.40;;;256.70;1433.60;;;;;;5072570;28;20024;-82
2021/03/23 12:13:13;;;;;;;8.63;4.72;;;256.70;1433.60;;;;;;5088895;28;20032;-82
2021/03/23 12:16:02;;;;;;;12.18;6.68;;;256.70;1433.60;;;;;;5072591;28;20028;-82
2021/03/23 12:18:32;;;;;;;7.25;3.00;;;256.80;1433.60;;;;;;5089572;28;20028;-82
2021/03/23 12:21:01;;;;;;;8.10;4.93;;;256.80;1433.60;;;;;;5089212;28;20029;-82
2021/03/23 12:23:28;;;;;;;9.02;5.68;;;256.80;1433.60;;;;;;5088972;28;20438;-82
2021/03/23 12:25:56;;;;;;;7.10;4.13;;;256.90;1433.60;;;;;;5089018;28;20120;-82
2021/03/23 12:28:22;;;;;;;6.68;4.28;;;256.90;1408.00;;;;;;5073649;28;20074;-82
2021/03/23 12:30:49;;;;;;;3.67;3.08;;;256.90;1408.00;;;;;;5089078;28;20503;-82
2021/03/23 12:33:14;;;;;;;3.58;3.22;;;256.90;1408.00;;;;;;5072394;28;20065;-82
2021/03/23 12:35:40;;;;;;;4.03;2.83;;;281.60;1433.60;;;;;;5073320;28;20063;-82
2021/03/23 12:38:09;;;;;;;6.80;4.10;;;281.60;1433.60;;;;;;5088468;28;20033;-82
2021/03/23 12:40:36;;;;;;;5.88;3.60;;;281.60;1433.60;;;;;;5088721;28;20028;-82